sensor_id;sensor_type;location;lat;lon;timestamp;P1;durP1;ratioP1;P2;durP2;ratioP2
40755;SDS011;26461;45.630;9.418;2023-05-31T00:01:45;6.78;;;3.00;;
40755;SDS011;26461;45.630;9.418;2023-05-31T00:08:26;4.53;;;3.20;;
40755;SDS011;26461;45.630;9.418;2023-05-31T00:11:31;7.80;;;3.28;;
40755;SDS011;26461;45.630;9.418;2023-05-31T00:19:04;6.00;;;4.50;;
40755;SDS011;26461;45.630;9.418;2023-05-31T00:22:10;11.02;;;2.95;;
40755;SDS011;26461;45.630;9.418;2023-05-31T00:25:21;8.82;;;6.47;;
40755;SDS011;26461;45.630;9.418;2023-05-31T00:28:26;7.38;;;3.70;;
40755;SDS011;26461;45.630;9.418;2023-05-31T00:31:32;10.98;;;3.60;;
40755;SDS011;26461;45.630;9.418;2023-05-31T00:34:37;10.40;;;3.83;;
40755;SDS011;26461;45.630;9.418;2023-05-31T00:37:43;8.85;;;3.95;;
40755;SDS011;26461;45.630;9.418;2023-05-31T00:40:48;11.55;;;3.75;;
40755;SDS011;26461;45.630;9.418;2023-05-31T00:43:58;5.10;;;3.20;;
40755;SDS011;26461;45.630;9.418;2023-05-31T00:47:08;7.90;;;3.63;;
40755;SDS011;26461;45.630;9.418;2023-05-31T00:50:14;6.57;;;2.80;;
40755;SDS011;26461;45.630;9.418;2023-05-31T00:53:21;5.47;;;1.85;;
40755;SDS011;26461;45.630;9.418;2023-05-31T00:56:27;13.93;;;4.07;;
40755;SDS011;26461;45.630;9.418;2023-05-31T00:59:33;6.50;;;5.38;;
40755;SDS011;26461;45.630;9.418;2023-05-31T01:02:39;7.38;;;3.25;;
40755;SDS011;26461;45.630;9.418;2023-05-31T01:05:46;7.05;;;3.33;;
40755;SDS011;26461;45.630;9.418;2023-05-31T01:08:53;10.48;;;2.40;;
40755;SDS011;26461;45.630;9.418;2023-05-31T01:15:31;5.40;;;3.58;;
40755;SDS011;26461;45.630;9.418;2023-05-31T01:18:44;6.90;;;4.00;;
40755;SDS011;26461;45.630;9.418;2023-05-31T01:21:59;11.90;;;3.35;;
40755;SDS011;26461;45.630;9.418;2023-05-31T01:29:09;5.40;;;2.10;;
40755;SDS011;26461;45.630;9.418;2023-05-31T01:32:18;6.63;;;2.60;;
40755;SDS011;26461;45.630;9.418;2023-05-31T01:35:26;6.43;;;3.42;;
40755;SDS011;26461;45.630;9.418;2023-05-31T01:38:32;11.50;;;3.15;;
40755;SDS011;26461;45.630;9.418;2023-05-31T01:41:40;12.52;;;3.90;;
40755;SDS011;26461;45.630;9.418;2023-05-31T01:44:47;8.25;;;3.15;;
40755;SDS011;26461;45.630;9.418;2023-05-31T01:47:57;8.32;;;2.70;;
40755;SDS011;26461;45.630;9.418;2023-05-31T01:51:11;9.85;;;3.30;;
40755;SDS011;26461;45.630;9.418;2023-05-31T01:54:26;13.20;;;5.18;;
40755;SDS011;26461;45.630;9.418;2023-05-31T01:57:37;12.88;;;4.28;;
40755;SDS011;26461;45.630;9.418;2023-05-31T02:00:44;13.00;;;3.83;;
40755;SDS011;26461;45.630;9.418;2023-05-31T02:03:51;12.98;;;3.80;;
40755;SDS011;26461;45.630;9.418;2023-05-31T02:06:56;14.75;;;3.55;;
40755;SDS011;26461;45.630;9.418;2023-05-31T02:10:08;8.13;;;3.97;;
40755;SDS011;26461;45.630;9.418;2023-05-31T02:13:15;8.15;;;3.30;;
40755;SDS011;26461;45.630;9.418;2023-05-31T02:16:26;7.13;;;3.13;;
40755;SDS011;26461;45.630;9.418;2023-05-31T02:19:37;7.50;;;4.00;;
40755;SDS011;26461;45.630;9.418;2023-05-31T02:22:44;3.90;;;3.08;;
40755;SDS011;26461;45.630;9.418;2023-05-31T02:25:55;9.32;;;3.85;;
40755;SDS011;26461;45.630;9.418;2023-05-31T02:29:02;7.75;;;2.40;;
40755;SDS011;26461;45.630;9.418;2023-05-31T02:32:07;5.55;;;1.98;;
40755;SDS011;26461;45.630;9.418;2023-05-31T02:35:13;5.03;;;2.03;;
40755;SDS011;26461;45.630;9.418;2023-05-31T02:38:19;10.30;;;3.22;;
40755;SDS011;26461;45.630;9.418;2023-05-31T02:41:30;7.70;;;2.80;;
40755;SDS011;26461;45.630;9.418;2023-05-31T02:44:41;7.25;;;3.20;;
40755;SDS011;26461;45.630;9.418;2023-05-31T02:47:46;7.47;;;2.97;;
40755;SDS011;26461;45.630;9.418;2023-05-31T02:50:53;7.80;;;3.55;;
40755;SDS011;26461;45.630;9.418;2023-05-31T02:54:15;14.48;;;3.83;;
40755;SDS011;26461;45.630;9.418;2023-05-31T02:57:21;5.53;;;2.38;;
40755;SDS011;26461;45.630;9.418;2023-05-31T03:00:26;4.10;;;2.58;;
40755;SDS011;26461;45.630;9.418;2023-05-31T03:03:32;6.95;;;3.00;;
40755;SDS011;26461;45.630;9.418;2023-05-31T03:06:55;6.85;;;2.67;;
40755;SDS011;26461;45.630;9.418;2023-05-31T03:10:01;11.38;;;3.65;;
40755;SDS011;26461;45.630;9.418;2023-05-31T03:13:08;13.82;;;6.50;;
40755;SDS011;26461;45.630;9.418;2023-05-31T03:16:16;7.82;;;2.17;;
40755;SDS011;26461;45.630;9.418;2023-05-31T03:19:30;7.88;;;2.25;;
40755;SDS011;26461;45.630;9.418;2023-05-31T03:22:42;4.15;;;1.60;;
40755;SDS011;26461;45.630;9.418;2023-05-31T03:25:49;6.00;;;1.73;;
40755;SDS011;26461;45.630;9.418;2023-05-31T03:29:00;7.72;;;2.17;;
40755;SDS011;26461;45.630;9.418;2023-05-31T03:32:06;5.57;;;3.83;;
40755;SDS011;26461;45.630;9.418;2023-05-31T03:35:11;9.57;;;3.33;;
40755;SDS011;26461;45.630;9.418;2023-05-31T03:38:22;8.05;;;3.78;;
40755;SDS011;26461;45.630;9.418;2023-05-31T03:41:28;9.60;;;2.00;;
40755;SDS011;26461;45.630;9.418;2023-05-31T03:44:41;7.45;;;2.78;;
40755;SDS011;26461;45.630;9.418;2023-05-31T03:47:47;4.78;;;2.78;;
40755;SDS011;26461;45.630;9.418;2023-05-31T03:50:53;12.15;;;3.20;;
40755;SDS011;26461;45.630;9.418;2023-05-31T03:54:00;8.13;;;2.50;;
40755;SDS011;26461;45.630;9.418;2023-05-31T03:57:05;10.50;;;3.67;;
40755;SDS011;26461;45.630;9.418;2023-05-31T04:00:17;6.57;;;2.65;;
40755;SDS011;26461;45.630;9.418;2023-05-31T04:03:28;5.35;;;2.60;;
40755;SDS011;26461;45.630;9.418;2023-05-31T04:06:34;11.38;;;5.93;;
40755;SDS011;26461;45.630;9.418;2023-05-31T04:09:40;7.80;;;2.00;;
40755;SDS011;26461;45.630;9.418;2023-05-31T04:12:46;10.88;;;4.18;;
40755;SDS011;26461;45.630;9.418;2023-05-31T04:15:57;6.10;;;2.80;;
40755;SDS011;26461;45.630;9.418;2023-05-31T04:19:03;7.15;;;1.85;;
40755;SDS011;26461;45.630;9.418;2023-05-31T04:22:09;5.57;;;2.20;;
40755;SDS011;26461;45.630;9.418;2023-05-31T04:25:16;3.92;;;1.52;;
40755;SDS011;26461;45.630;9.418;2023-05-31T04:28:22;7.97;;;2.75;;
40755;SDS011;26461;45.630;9.418;2023-05-31T04:31:32;11.80;;;3.88;;
40755;SDS011;26461;45.630;9.418;2023-05-31T04:34:46;14.65;;;4.07;;
40755;SDS011;26461;45.630;9.418;2023-05-31T04:37:55;9.27;;;2.55;;
40755;SDS011;26461;45.630;9.418;2023-05-31T04:41:04;3.55;;;1.45;;
40755;SDS011;26461;45.630;9.418;2023-05-31T04:44:09;4.88;;;1.98;;
40755;SDS011;26461;45.630;9.418;2023-05-31T04:47:16;8.20;;;1.77;;
40755;SDS011;26461;45.630;9.418;2023-05-31T04:50:25;5.20;;;1.60;;
40755;SDS011;26461;45.630;9.418;2023-05-31T04:53:36;4.95;;;1.83;;
40755;SDS011;26461;45.630;9.418;2023-05-31T04:56:50;6.15;;;2.75;;
40755;SDS011;26461;45.630;9.418;2023-05-31T05:00:01;3.25;;;1.45;;
40755;SDS011;26461;45.630;9.418;2023-05-31T05:04:10;6.63;;;1.65;;
40755;SDS011;26461;45.630;9.418;2023-05-31T05:07:16;6.78;;;2.83;;
40755;SDS011;26461;45.630;9.418;2023-05-31T05:10:22;4.20;;;1.27;;
40755;SDS011;26461;45.630;9.418;2023-05-31T05:13:32;6.22;;;3.15;;
40755;SDS011;26461;45.630;9.418;2023-05-31T05:16:38;6.70;;;3.05;;
40755;SDS011;26461;45.630;9.418;2023-05-31T05:19:48;9.88;;;2.03;;
40755;SDS011;26461;45.630;9.418;2023-05-31T05:22:54;7.55;;;2.75;;
40755;SDS011;26461;45.630;9.418;2023-05-31T05:26:04;5.22;;;1.63;;
40755;SDS011;26461;45.630;9.418;2023-05-31T05:29:11;8.40;;;2.35;;
40755;SDS011;26461;45.630;9.418;2023-05-31T05:32:16;5.20;;;2.45;;
40755;SDS011;26461;45.630;9.418;2023-05-31T05:35:22;7.32;;;2.97;;
40755;SDS011;26461;45.630;9.418;2023-05-31T05:38:27;5.07;;;2.35;;
40755;SDS011;26461;45.630;9.418;2023-05-31T05:41:32;10.20;;;1.85;;
40755;SDS011;26461;45.630;9.418;2023-05-31T05:44:40;7.80;;;1.58;;
40755;SDS011;26461;45.630;9.418;2023-05-31T05:47:51;6.15;;;1.98;;
40755;SDS011;26461;45.630;9.418;2023-05-31T05:51:05;4.85;;;2.17;;
40755;SDS011;26461;45.630;9.418;2023-05-31T05:54:11;5.03;;;2.35;;
40755;SDS011;26461;45.630;9.418;2023-05-31T05:57:17;4.95;;;1.30;;
40755;SDS011;26461;45.630;9.418;2023-05-31T06:00:25;6.25;;;3.08;;
40755;SDS011;26461;45.630;9.418;2023-05-31T06:03:41;6.47;;;2.20;;
40755;SDS011;26461;45.630;9.418;2023-05-31T06:06:51;7.38;;;2.25;;
40755;SDS011;26461;45.630;9.418;2023-05-31T06:09:57;4.70;;;2.08;;
40755;SDS011;26461;45.630;9.418;2023-05-31T06:13:02;8.73;;;1.63;;
40755;SDS011;26461;45.630;9.418;2023-05-31T06:16:10;4.35;;;1.83;;
40755;SDS011;26461;45.630;9.418;2023-05-31T06:19:19;6.05;;;2.17;;
40755;SDS011;26461;45.630;9.418;2023-05-31T06:22:24;4.85;;;1.58;;
40755;SDS011;26461;45.630;9.418;2023-05-31T06:25:30;4.30;;;1.80;;
40755;SDS011;26461;45.630;9.418;2023-05-31T06:28:36;5.10;;;2.17;;
40755;SDS011;26461;45.630;9.418;2023-05-31T06:31:43;5.28;;;1.75;;
40755;SDS011;26461;45.630;9.418;2023-05-31T06:34:54;5.55;;;1.80;;
40755;SDS011;26461;45.630;9.418;2023-05-31T06:38:00;3.38;;;1.50;;
40755;SDS011;26461;45.630;9.418;2023-05-31T06:41:14;3.70;;;2.08;;
40755;SDS011;26461;45.630;9.418;2023-05-31T06:44:19;5.28;;;1.98;;
40755;SDS011;26461;45.630;9.418;2023-05-31T06:47:34;9.73;;;3.30;;
40755;SDS011;26461;45.630;9.418;2023-05-31T06:50:50;5.32;;;1.75;;
40755;SDS011;26461;45.630;9.418;2023-05-31T06:54:34;3.15;;;1.02;;
40755;SDS011;26461;45.630;9.418;2023-05-31T06:57:46;6.70;;;2.38;;
40755;SDS011;26461;45.630;9.418;2023-05-31T07:00:57;8.10;;;2.33;;
40755;SDS011;26461;45.630;9.418;2023-05-31T07:04:03;10.80;;;2.65;;
40755;SDS011;26461;45.630;9.418;2023-05-31T07:07:09;6.45;;;1.70;;
40755;SDS011;26461;45.630;9.418;2023-05-31T07:10:20;6.47;;;1.10;;
40755;SDS011;26461;45.630;9.418;2023-05-31T07:13:26;3.78;;;0.93;;
40755;SDS011;26461;45.630;9.418;2023-05-31T07:16:37;10.15;;;1.52;;
40755;SDS011;26461;45.630;9.418;2023-05-31T07:19:43;3.65;;;1.48;;
40755;SDS011;26461;45.630;9.418;2023-05-31T07:22:49;6.97;;;0.95;;
40755;SDS011;26461;45.630;9.418;2023-05-31T07:25:56;5.45;;;0.88;;
40755;SDS011;26461;45.630;9.418;2023-05-31T07:29:02;6.93;;;3.08;;
40755;SDS011;26461;45.630;9.418;2023-05-31T07:32:08;3.35;;;1.45;;
40755;SDS011;26461;45.630;9.418;2023-05-31T07:35:19;4.18;;;1.15;;
40755;SDS011;26461;45.630;9.418;2023-05-31T07:38:34;4.95;;;2.08;;
40755;SDS011;26461;45.630;9.418;2023-05-31T07:41:40;4.85;;;1.70;;
40755;SDS011;26461;45.630;9.418;2023-05-31T07:44:51;5.63;;;2.15;;
40755;SDS011;26461;45.630;9.418;2023-05-31T07:48:01;3.35;;;1.10;;
40755;SDS011;26461;45.630;9.418;2023-05-31T07:51:12;3.50;;;1.10;;
40755;SDS011;26461;45.630;9.418;2023-05-31T07:54:18;3.95;;;1.27;;
40755;SDS011;26461;45.630;9.418;2023-05-31T07:57:23;4.28;;;1.52;;
40755;SDS011;26461;45.630;9.418;2023-05-31T08:00:29;7.47;;;2.97;;
40755;SDS011;26461;45.630;9.418;2023-05-31T08:03:34;5.00;;;1.95;;
40755;SDS011;26461;45.630;9.418;2023-05-31T08:06:39;3.65;;;2.13;;
40755;SDS011;26461;45.630;9.418;2023-05-31T08:09:46;6.50;;;2.22;;
40755;SDS011;26461;45.630;9.418;2023-05-31T08:12:52;4.68;;;1.73;;
40755;SDS011;26461;45.630;9.418;2023-05-31T08:15:58;7.30;;;1.48;;
40755;SDS011;26461;45.630;9.418;2023-05-31T08:19:09;8.23;;;2.92;;
40755;SDS011;26461;45.630;9.418;2023-05-31T08:22:15;6.15;;;1.40;;
40755;SDS011;26461;45.630;9.418;2023-05-31T08:25:21;3.92;;;1.65;;
40755;SDS011;26461;45.630;9.418;2023-05-31T08:28:27;5.10;;;1.80;;
40755;SDS011;26461;45.630;9.418;2023-05-31T08:31:39;4.35;;;0.88;;
40755;SDS011;26461;45.630;9.418;2023-05-31T08:34:45;8.60;;;3.60;;
40755;SDS011;26461;45.630;9.418;2023-05-31T08:37:55;5.57;;;2.00;;
40755;SDS011;26461;45.630;9.418;2023-05-31T08:41:02;5.35;;;2.97;;
40755;SDS011;26461;45.630;9.418;2023-05-31T08:44:14;4.35;;;2.00;;
40755;SDS011;26461;45.630;9.418;2023-05-31T08:47:30;8.30;;;2.17;;
40755;SDS011;26461;45.630;9.418;2023-05-31T08:50:41;6.30;;;1.83;;
40755;SDS011;26461;45.630;9.418;2023-05-31T08:53:47;4.97;;;1.88;;
40755;SDS011;26461;45.630;9.418;2023-05-31T08:56:53;5.50;;;2.38;;
40755;SDS011;26461;45.630;9.418;2023-05-31T09:00:00;4.30;;;1.90;;
40755;SDS011;26461;45.630;9.418;2023-05-31T09:03:22;11.00;;;4.50;;
40755;SDS011;26461;45.630;9.418;2023-05-31T09:06:27;5.85;;;2.70;;
40755;SDS011;26461;45.630;9.418;2023-05-31T09:09:40;9.75;;;3.10;;
40755;SDS011;26461;45.630;9.418;2023-05-31T09:12:50;8.88;;;2.58;;
40755;SDS011;26461;45.630;9.418;2023-05-31T09:15:55;7.03;;;2.85;;
40755;SDS011;26461;45.630;9.418;2023-05-31T09:19:06;7.68;;;3.10;;
40755;SDS011;26461;45.630;9.418;2023-05-31T09:22:18;5.43;;;3.05;;
40755;SDS011;26461;45.630;9.418;2023-05-31T09:25:27;9.88;;;3.08;;
40755;SDS011;26461;45.630;9.418;2023-05-31T09:28:38;5.60;;;1.25;;
40755;SDS011;26461;45.630;9.418;2023-05-31T09:32:09;6.10;;;3.88;;
40755;SDS011;26461;45.630;9.418;2023-05-31T09:35:20;4.63;;;2.13;;
40755;SDS011;26461;45.630;9.418;2023-05-31T09:38:32;8.65;;;2.72;;
40755;SDS011;26461;45.630;9.418;2023-05-31T09:41:43;3.90;;;2.55;;
40755;SDS011;26461;45.630;9.418;2023-05-31T09:44:49;7.05;;;4.00;;
40755;SDS011;26461;45.630;9.418;2023-05-31T09:47:54;22.73;;;5.18;;
40755;SDS011;26461;45.630;9.418;2023-05-31T09:51:00;8.30;;;2.85;;
40755;SDS011;26461;45.630;9.418;2023-05-31T09:54:14;7.38;;;2.67;;
40755;SDS011;26461;45.630;9.418;2023-05-31T09:57:28;7.15;;;3.67;;
40755;SDS011;26461;45.630;9.418;2023-05-31T10:00:44;5.40;;;2.08;;
40755;SDS011;26461;45.630;9.418;2023-05-31T10:03:51;7.95;;;3.78;;
40755;SDS011;26461;45.630;9.418;2023-05-31T10:06:57;5.32;;;3.17;;
40755;SDS011;26461;45.630;9.418;2023-05-31T10:10:02;5.97;;;3.83;;
40755;SDS011;26461;45.630;9.418;2023-05-31T10:13:13;8.18;;;3.20;;
40755;SDS011;26461;45.630;9.418;2023-05-31T10:16:28;5.25;;;2.35;;
40755;SDS011;26461;45.630;9.418;2023-05-31T10:19:45;6.20;;;2.75;;
40755;SDS011;26461;45.630;9.418;2023-05-31T10:23:01;5.60;;;1.83;;
40755;SDS011;26461;45.630;9.418;2023-05-31T10:26:16;5.13;;;3.63;;
40755;SDS011;26461;45.630;9.418;2023-05-31T10:29:28;5.13;;;1.85;;
40755;SDS011;26461;45.630;9.418;2023-05-31T10:32:53;7.05;;;3.30;;
40755;SDS011;26461;45.630;9.418;2023-05-31T10:36:04;10.00;;;4.28;;
40755;SDS011;26461;45.630;9.418;2023-05-31T10:39:19;10.43;;;4.47;;
40755;SDS011;26461;45.630;9.418;2023-05-31T10:46:02;6.85;;;3.42;;
40755;SDS011;26461;45.630;9.418;2023-05-31T10:49:18;10.90;;;3.22;;
40755;SDS011;26461;45.630;9.418;2023-05-31T10:52:29;4.55;;;2.65;;
40755;SDS011;26461;45.630;9.418;2023-05-31T10:55:42;8.98;;;3.05;;
40755;SDS011;26461;45.630;9.418;2023-05-31T10:58:51;10.98;;;3.28;;
40755;SDS011;26461;45.630;9.418;2023-05-31T11:01:57;7.95;;;3.85;;
40755;SDS011;26461;45.630;9.418;2023-05-31T11:05:17;7.80;;;4.20;;
40755;SDS011;26461;45.630;9.418;2023-05-31T11:08:32;7.20;;;5.22;;
40755;SDS011;26461;45.630;9.418;2023-05-31T11:14:58;7.07;;;4.15;;
40755;SDS011;26461;45.630;9.418;2023-05-31T11:18:09;11.75;;;5.72;;
40755;SDS011;26461;45.630;9.418;2023-05-31T11:21:51;13.77;;;4.75;;
40755;SDS011;26461;45.630;9.418;2023-05-31T11:25:06;5.90;;;3.45;;
40755;SDS011;26461;45.630;9.418;2023-05-31T11:28:17;11.90;;;4.00;;
40755;SDS011;26461;45.630;9.418;2023-05-31T11:31:54;6.22;;;3.03;;
40755;SDS011;26461;45.630;9.418;2023-05-31T11:34:59;9.93;;;4.50;;
40755;SDS011;26461;45.630;9.418;2023-05-31T11:38:08;6.45;;;3.83;;
40755;SDS011;26461;45.630;9.418;2023-05-31T11:41:13;10.77;;;4.03;;
40755;SDS011;26461;45.630;9.418;2023-05-31T11:44:28;12.38;;;7.25;;
40755;SDS011;26461;45.630;9.418;2023-05-31T11:50:50;8.30;;;4.57;;
40755;SDS011;26461;45.630;9.418;2023-05-31T11:53:56;6.80;;;3.67;;
40755;SDS011;26461;45.630;9.418;2023-05-31T11:57:03;9.88;;;5.15;;
40755;SDS011;26461;45.630;9.418;2023-05-31T12:00:13;10.35;;;4.75;;
40755;SDS011;26461;45.630;9.418;2023-05-31T12:03:20;9.35;;;4.38;;
40755;SDS011;26461;45.630;9.418;2023-05-31T12:06:30;12.63;;;3.70;;
40755;SDS011;26461;45.630;9.418;2023-05-31T12:09:36;5.35;;;4.18;;
40755;SDS011;26461;45.630;9.418;2023-05-31T12:12:42;7.35;;;4.95;;
40755;SDS011;26461;45.630;9.418;2023-05-31T12:15:50;10.95;;;5.68;;
40755;SDS011;26461;45.630;9.418;2023-05-31T12:18:58;6.63;;;4.03;;
40755;SDS011;26461;45.630;9.418;2023-05-31T12:22:04;10.90;;;5.88;;
40755;SDS011;26461;45.630;9.418;2023-05-31T12:25:09;10.77;;;5.82;;
40755;SDS011;26461;45.630;9.418;2023-05-31T12:28:16;7.55;;;3.58;;
40755;SDS011;26461;45.630;9.418;2023-05-31T12:31:23;5.78;;;3.50;;
40755;SDS011;26461;45.630;9.418;2023-05-31T12:34:36;9.00;;;4.10;;
40755;SDS011;26461;45.630;9.418;2023-05-31T12:37:42;13.80;;;5.47;;
40755;SDS011;26461;45.630;9.418;2023-05-31T12:40:48;5.47;;;3.45;;
40755;SDS011;26461;45.630;9.418;2023-05-31T12:43:58;17.23;;;5.50;;
40755;SDS011;26461;45.630;9.418;2023-05-31T12:47:08;11.65;;;6.80;;
40755;SDS011;26461;45.630;9.418;2023-05-31T12:50:14;11.18;;;5.30;;
40755;SDS011;26461;45.630;9.418;2023-05-31T12:53:20;8.20;;;4.60;;
40755;SDS011;26461;45.630;9.418;2023-05-31T12:56:31;14.68;;;4.25;;
40755;SDS011;26461;45.630;9.418;2023-05-31T12:59:41;11.10;;;6.40;;
40755;SDS011;26461;45.630;9.418;2023-05-31T13:02:52;12.23;;;6.07;;
40755;SDS011;26461;45.630;9.418;2023-05-31T13:05:57;8.73;;;5.28;;
40755;SDS011;26461;45.630;9.418;2023-05-31T13:09:08;7.95;;;3.03;;
40755;SDS011;26461;45.630;9.418;2023-05-31T13:12:19;6.25;;;3.95;;
40755;SDS011;26461;45.630;9.418;2023-05-31T13:15:27;11.27;;;6.57;;
40755;SDS011;26461;45.630;9.418;2023-05-31T13:18:32;11.70;;;6.00;;
40755;SDS011;26461;45.630;9.418;2023-05-31T13:21:38;6.40;;;4.68;;
40755;SDS011;26461;45.630;9.418;2023-05-31T13:24:48;14.80;;;7.55;;
40755;SDS011;26461;45.630;9.418;2023-05-31T13:27:54;9.55;;;7.28;;
40755;SDS011;26461;45.630;9.418;2023-05-31T13:31:04;6.75;;;5.78;;
40755;SDS011;26461;45.630;9.418;2023-05-31T13:34:10;8.13;;;3.90;;
40755;SDS011;26461;45.630;9.418;2023-05-31T13:37:16;22.40;;;7.03;;
40755;SDS011;26461;45.630;9.418;2023-05-31T13:40:30;11.88;;;6.32;;
40755;SDS011;26461;45.630;9.418;2023-05-31T13:43:36;11.82;;;5.57;;
40755;SDS011;26461;45.630;9.418;2023-05-31T13:46:44;10.27;;;4.25;;
40755;SDS011;26461;45.630;9.418;2023-05-31T13:49:50;9.68;;;5.22;;
40755;SDS011;26461;45.630;9.418;2023-05-31T13:52:56;11.10;;;9.80;;
40755;SDS011;26461;45.630;9.418;2023-05-31T13:56:01;8.90;;;5.25;;
40755;SDS011;26461;45.630;9.418;2023-05-31T13:59:12;13.10;;;6.15;;
40755;SDS011;26461;45.630;9.418;2023-05-31T14:02:18;8.85;;;4.85;;
40755;SDS011;26461;45.630;9.418;2023-05-31T14:05:24;14.55;;;5.68;;
40755;SDS011;26461;45.630;9.418;2023-05-31T14:08:36;13.82;;;6.00;;
40755;SDS011;26461;45.630;9.418;2023-05-31T14:11:42;6.25;;;5.00;;
40755;SDS011;26461;45.630;9.418;2023-05-31T14:14:53;7.07;;;4.43;;
40755;SDS011;26461;45.630;9.418;2023-05-31T14:18:03;11.02;;;3.58;;
40755;SDS011;26461;45.630;9.418;2023-05-31T14:21:13;11.50;;;6.07;;
40755;SDS011;26461;45.630;9.418;2023-05-31T14:24:20;8.85;;;6.65;;
40755;SDS011;26461;45.630;9.418;2023-05-31T14:27:30;9.02;;;4.05;;
40755;SDS011;26461;45.630;9.418;2023-05-31T14:30:40;16.38;;;6.10;;
40755;SDS011;26461;45.630;9.418;2023-05-31T14:33:51;9.10;;;5.78;;
40755;SDS011;26461;45.630;9.418;2023-05-31T14:37:02;11.32;;;5.72;;
40755;SDS011;26461;45.630;9.418;2023-05-31T14:40:08;13.07;;;5.70;;
40755;SDS011;26461;45.630;9.418;2023-05-31T14:43:14;8.32;;;3.63;;
40755;SDS011;26461;45.630;9.418;2023-05-31T14:46:24;10.20;;;4.60;;
40755;SDS011;26461;45.630;9.418;2023-05-31T14:49:35;6.03;;;2.95;;
40755;SDS011;26461;45.630;9.418;2023-05-31T14:52:45;4.38;;;2.35;;
40755;SDS011;26461;45.630;9.418;2023-05-31T14:55:51;5.68;;;2.22;;
40755;SDS011;26461;45.630;9.418;2023-05-31T14:58:56;5.82;;;4.60;;
40755;SDS011;26461;45.630;9.418;2023-05-31T15:02:01;12.73;;;5.00;;
40755;SDS011;26461;45.630;9.418;2023-05-31T15:05:12;4.70;;;3.72;;
40755;SDS011;26461;45.630;9.418;2023-05-31T15:08:23;5.28;;;2.50;;
40755;SDS011;26461;45.630;9.418;2023-05-31T15:11:28;9.05;;;2.58;;
40755;SDS011;26461;45.630;9.418;2023-05-31T15:14:34;5.10;;;3.15;;
40755;SDS011;26461;45.630;9.418;2023-05-31T15:17:46;6.82;;;4.63;;
40755;SDS011;26461;45.630;9.418;2023-05-31T15:20:52;6.53;;;3.35;;
40755;SDS011;26461;45.630;9.418;2023-05-31T15:23:58;7.07;;;3.85;;
40755;SDS011;26461;45.630;9.418;2023-05-31T15:27:08;7.60;;;2.85;;
40755;SDS011;26461;45.630;9.418;2023-05-31T15:30:21;8.55;;;4.55;;
40755;SDS011;26461;45.630;9.418;2023-05-31T15:33:29;6.88;;;1.92;;
40755;SDS011;26461;45.630;9.418;2023-05-31T15:36:35;4.85;;;1.92;;
40755;SDS011;26461;45.630;9.418;2023-05-31T15:39:46;4.90;;;3.05;;
40755;SDS011;26461;45.630;9.418;2023-05-31T15:42:51;5.50;;;2.20;;
40755;SDS011;26461;45.630;9.418;2023-05-31T15:45:56;7.72;;;3.65;;
40755;SDS011;26461;45.630;9.418;2023-05-31T15:49:02;8.10;;;3.10;;
40755;SDS011;26461;45.630;9.418;2023-05-31T15:52:12;5.90;;;2.28;;
40755;SDS011;26461;45.630;9.418;2023-05-31T15:55:26;7.43;;;2.42;;
40755;SDS011;26461;45.630;9.418;2023-05-31T15:58:38;5.05;;;3.08;;
40755;SDS011;26461;45.630;9.418;2023-05-31T16:01:50;7.80;;;3.33;;
40755;SDS011;26461;45.630;9.418;2023-05-31T16:05:01;3.90;;;2.90;;
40755;SDS011;26461;45.630;9.418;2023-05-31T16:08:06;7.63;;;5.18;;
40755;SDS011;26461;45.630;9.418;2023-05-31T16:11:18;8.00;;;4.20;;
40755;SDS011;26461;45.630;9.418;2023-05-31T16:14:28;14.02;;;5.20;;
40755;SDS011;26461;45.630;9.418;2023-05-31T16:17:34;8.07;;;3.55;;
40755;SDS011;26461;45.630;9.418;2023-05-31T16:20:40;5.68;;;2.58;;
40755;SDS011;26461;45.630;9.418;2023-05-31T16:23:51;10.70;;;4.78;;
40755;SDS011;26461;45.630;9.418;2023-05-31T16:27:02;13.48;;;4.60;;
40755;SDS011;26461;45.630;9.418;2023-05-31T16:30:14;17.35;;;4.93;;
40755;SDS011;26461;45.630;9.418;2023-05-31T16:33:19;8.70;;;3.33;;
40755;SDS011;26461;45.630;9.418;2023-05-31T16:36:24;12.32;;;5.50;;
40755;SDS011;26461;45.630;9.418;2023-05-31T16:39:34;8.30;;;3.05;;
40755;SDS011;26461;45.630;9.418;2023-05-31T16:42:40;6.07;;;3.72;;
40755;SDS011;26461;45.630;9.418;2023-05-31T16:45:50;9.52;;;4.82;;
40755;SDS011;26461;45.630;9.418;2023-05-31T16:48:56;7.88;;;4.05;;
40755;SDS011;26461;45.630;9.418;2023-05-31T16:52:00;11.50;;;5.75;;
40755;SDS011;26461;45.630;9.418;2023-05-31T16:55:06;10.75;;;4.60;;
40755;SDS011;26461;45.630;9.418;2023-05-31T16:58:11;8.20;;;4.07;;
40755;SDS011;26461;45.630;9.418;2023-05-31T17:01:17;6.30;;;4.38;;
40755;SDS011;26461;45.630;9.418;2023-05-31T17:04:22;6.63;;;3.42;;
40755;SDS011;26461;45.630;9.418;2023-05-31T17:07:27;6.47;;;4.45;;
40755;SDS011;26461;45.630;9.418;2023-05-31T17:10:37;8.70;;;4.90;;
40755;SDS011;26461;45.630;9.418;2023-05-31T17:13:49;8.73;;;3.30;;
40755;SDS011;26461;45.630;9.418;2023-05-31T17:16:54;10.07;;;5.22;;
40755;SDS011;26461;45.630;9.418;2023-05-31T17:20:00;12.27;;;5.53;;
40755;SDS011;26461;45.630;9.418;2023-05-31T17:23:08;7.40;;;3.60;;
40755;SDS011;26461;45.630;9.418;2023-05-31T17:26:12;14.00;;;4.95;;
40755;SDS011;26461;45.630;9.418;2023-05-31T17:29:20;11.55;;;5.20;;
40755;SDS011;26461;45.630;9.418;2023-05-31T17:32:26;9.73;;;4.28;;
40755;SDS011;26461;45.630;9.418;2023-05-31T17:35:36;8.40;;;5.15;;
40755;SDS011;26461;45.630;9.418;2023-05-31T17:38:41;10.02;;;5.40;;
40755;SDS011;26461;45.630;9.418;2023-05-31T17:41:47;19.63;;;4.95;;
40755;SDS011;26461;45.630;9.418;2023-05-31T17:44:54;7.65;;;3.22;;
40755;SDS011;26461;45.630;9.418;2023-05-31T17:48:04;4.93;;;3.10;;
40755;SDS011;26461;45.630;9.418;2023-05-31T17:51:10;4.82;;;3.97;;
40755;SDS011;26461;45.630;9.418;2023-05-31T17:54:16;7.80;;;3.25;;
40755;SDS011;26461;45.630;9.418;2023-05-31T17:57:21;7.07;;;2.97;;
40755;SDS011;26461;45.630;9.418;2023-05-31T18:00:27;6.40;;;3.47;;
40755;SDS011;26461;45.630;9.418;2023-05-31T18:03:32;6.60;;;2.88;;
40755;SDS011;26461;45.630;9.418;2023-05-31T18:06:43;5.50;;;2.45;;
40755;SDS011;26461;45.630;9.418;2023-05-31T18:09:48;5.47;;;3.35;;
40755;SDS011;26461;45.630;9.418;2023-05-31T18:12:54;9.80;;;3.53;;
40755;SDS011;26461;45.630;9.418;2023-05-31T18:15:59;6.22;;;3.22;;
40755;SDS011;26461;45.630;9.418;2023-05-31T18:19:05;5.88;;;3.40;;
40755;SDS011;26461;45.630;9.418;2023-05-31T18:22:10;6.65;;;2.55;;
40755;SDS011;26461;45.630;9.418;2023-05-31T18:25:21;14.48;;;3.95;;
40755;SDS011;26461;45.630;9.418;2023-05-31T18:28:33;7.72;;;3.35;;
40755;SDS011;26461;45.630;9.418;2023-05-31T18:31:39;8.05;;;3.13;;
40755;SDS011;26461;45.630;9.418;2023-05-31T18:34:45;7.28;;;2.53;;
40755;SDS011;26461;45.630;9.418;2023-05-31T18:37:52;6.22;;;2.70;;
40755;SDS011;26461;45.630;9.418;2023-05-31T18:41:03;11.23;;;7.53;;
40755;SDS011;26461;45.630;9.418;2023-05-31T18:44:13;8.48;;;5.25;;
40755;SDS011;26461;45.630;9.418;2023-05-31T18:47:18;9.85;;;5.28;;
40755;SDS011;26461;45.630;9.418;2023-05-31T18:50:25;9.85;;;6.25;;
40755;SDS011;26461;45.630;9.418;2023-05-31T18:57:12;8.10;;;4.78;;
40755;SDS011;26461;45.630;9.418;2023-05-31T19:00:19;15.43;;;4.43;;
40755;SDS011;26461;45.630;9.418;2023-05-31T19:03:29;11.68;;;6.55;;
40755;SDS011;26461;45.630;9.418;2023-05-31T19:06:35;8.63;;;6.43;;
40755;SDS011;26461;45.630;9.418;2023-05-31T19:09:49;9.82;;;4.78;;
40755;SDS011;26461;45.630;9.418;2023-05-31T19:12:55;8.32;;;4.03;;
40755;SDS011;26461;45.630;9.418;2023-05-31T19:16:00;6.80;;;3.70;;
40755;SDS011;26461;45.630;9.418;2023-05-31T19:19:06;12.07;;;4.88;;
40755;SDS011;26461;45.630;9.418;2023-05-31T19:22:17;9.82;;;5.03;;
40755;SDS011;26461;45.630;9.418;2023-05-31T19:25:27;10.43;;;5.45;;